Dane County Regional Truax Field
KMSN : now visible

Aeroporto :











RITROVATECI SU...

 
LOGIN :

Iscrizione | Disclaimer

   EN    FR    IT 

 









Sommario :    VFR   VFR Marginale   IFR   IFR Intensivo   IFR Molto Intensivo
Visibilità : 
Base nubi : 
>= 8 km
>= 3000ft
5 / 8 km
1000 / 3000 ft
1500m / 5 km
500 / 1000 ft
800 / 1500m
200 / 500 ft
< 800m
< 200 ft
Simboli :   Temporali  Nebbia  Neve Forte  Precipitazioni Forti  Vento > 20 kt







- Altitudine del aeroporto : 887 ft
- Codice IATA : MSN


KMSN - Dane County Regional Truax Field

ULTIMO METAR :
  • 170353Z 15004KT 10SM FEW250 20/17 A3013 RMK AO2 SLP199 LAST T02000167 $

METARs OBSOLETI :
  • 170253Z 16005KT 10SM SCT250 21/17 A3012 RMK AO2 SLP197 T02060167 53008 $
  • 170153Z 15007KT 10SM SCT250 22/17 A3011 RMK AO2 SLP192 T02170167 $

TAF KMSN
Valido dal 17 a 00 ore il 18 a 00 ore UTC


162320Z 1700/1724 VRB04KT P6SM BKN250
FM170600 VRB03KT 5SM BR BKN060
FM171300 16006KT P6SM BKN120
FM171900 16008KT P6SM FEW200
Nessun NOTAM noto per questo aeroporto.



MetMap, La meteo Aeronautica in un colpo d'occhio ! - Copyright ORBIFLY Dicembre 2007 - Disclaimer

ORBIFLY MET'MAP TEAM :

Programmazione e sviluppo : Alexandra Zaïnal
Concezione e sviluppo : Baudouin d'Aumeries
Co-Programmazione e sviluppo : Marc-Olivier Méhu
Supporto tecnico e logistico : Manuel Goepfert
Aiuto per la traduzione : Arnaldo La Scala

Contatto : metmap@orbifly.com




FONTI E CREDITI :

   NOAA       Earth
Advisory